Annandale, Minnesota
Current Conditions -  °F | °C
As of 7:15 PM on Tuesday 21 Oct 2014 (Local Time) from KMGG Reporting Station
Clear Clear  
Wind Chill: 53°   Ceiling: Unl
Heat Index: 53°   Visibility: 10mi
Dew Point: 43°   Wind: 7mph
Humidity: 68%   Direction: 110°ESE
Pressure: 30.12"   Gusts: NA
Location:  45.26°N, 94.12°W
Report Text: KMGG 220015Z AUTO 11006KT 10SM CLR 12/06 A3012 RMK AO2 T01170060
Loading
Personal Weather Stations






























Interactive Weather Map
Tropical Storm Tracking
New forecast layout! Learn more

10-Day Weather Forecast

Advertisements
Track Severe Weather on mobile